createdAt,value
2019-05-01T00:01:33.644Z,73.20
2019-05-01T00:04:24.645Z,68.00
2019-05-01T00:06:58.724Z,65.97
2019-05-01T00:09:31.757Z,66.57
2019-05-01T00:12:05.611Z,72.27
2019-05-01T00:14:39.490Z,70.53
2019-05-01T00:17:10.665Z,70.57
2019-05-01T00:19:42.088Z,68.50
2019-05-01T00:22:12.276Z,75.53
2019-05-01T00:24:45.944Z,72.47
2019-05-01T00:27:16.339Z,73.23
2019-05-01T00:29:48.135Z,71.87
2019-05-01T00:32:22.093Z,65.97
2019-05-01T00:34:54.926Z,71.47
2019-05-01T00:37:25.988Z,70.47
2019-05-01T00:40:01.252Z,69.20
2019-05-01T00:42:32.839Z,70.90
2019-05-01T00:45:01.978Z,68.43
2019-05-01T00:47:31.547Z,63.80
2019-05-01T00:50:04.401Z,68.93
2019-05-01T00:52:37.179Z,76.27
2019-05-01T00:55:24.501Z,71.87
2019-05-01T00:58:06.349Z,74.37
2019-05-01T01:00:57.535Z,74.03
2019-05-01T01:03:27.883Z,70.83
2019-05-01T01:05:58.560Z,69.27
2019-05-01T01:08:31.585Z,70.03
2019-05-01T01:11:21.424Z,71.97
2019-05-01T01:13:46.387Z,65.67
2019-05-01T01:16:14.349Z,69.57
2019-05-01T01:18:42.741Z,70.07
2019-05-01T01:21:10.711Z,74.13
2019-05-01T01:23:41.026Z,71.03
2019-05-01T01:26:08.916Z,69.53
2019-05-01T01:28:36.808Z,71.03
2019-05-01T01:31:05.072Z,69.83
2019-05-01T01:33:33.140Z,74.97
2019-05-01T01:36:01.370Z,76.03
2019-05-01T01:38:30.914Z,68.60
2019-05-01T01:41:01.099Z,73.13
2019-05-01T01:43:43.918Z,76.93
2019-05-01T01:46:14.131Z,79.50
2019-05-01T01:48:42.528Z,81.43
2019-05-01T01:51:10.539Z,76.07
2019-05-01T01:53:38.829Z,74.23
2019-05-01T01:56:07.115Z,72.27
2019-05-01T01:58:35.318Z,78.93
2019-05-01T02:01:30.849Z,78.83
2019-05-01T02:04:02.555Z,77.40
2019-05-01T02:06:30.879Z,76.13
2019-05-01T02:09:21.636Z,72.93
2019-05-01T02:11:49.965Z,77.60
2019-05-01T02:14:18.183Z,76.00
2019-05-01T02:16:46.542Z,78.43
2019-05-01T02:19:14.963Z,77.13
2019-05-01T02:21:43.160Z,75.07
2019-05-01T02:24:11.428Z,73.87
2019-05-01T02:26:45.876Z,82.27
2019-05-01T02:29:41.778Z,79.10
2019-05-01T02:32:15.383Z,79.93
2019-05-01T02:34:49.837Z,75.47
2019-05-01T02:37:19.554Z,75.53
2019-05-01T02:39:56.483Z,74.07
2019-05-01T02:42:28.274Z,77.87
2019-05-01T02:44:58.081Z,74.83
2019-05-01T02:47:28.667Z,82.10
2019-05-01T02:53:26.142Z,76.87
2019-05-01T02:59:18.045Z,75.90
2019-05-01T03:01:48.053Z,84.17
2019-05-01T03:04:17.397Z,75.07
2019-05-01T03:06:49.345Z,78.30
2019-05-01T03:09:18.430Z,77.67
2019-05-01T03:11:47.974Z,82.07
2019-05-01T03:14:17.957Z,81.93
2019-05-01T03:16:55.506Z,85.07
2019-05-01T03:19:41.641Z,80.93
2019-05-01T03:22:23.324Z,82.30
2019-05-01T03:24:51.808Z,87.60
2019-05-01T03:27:20.053Z,86.53
2019-05-01T03:29:48.173Z,92.40
2019-05-01T03:32:19.008Z,81.07
2019-05-01T03:34:51.853Z,84.43
2019-05-01T03:37:16.203Z,84.10
2019-05-01T03:39:45.799Z,82.03
2019-05-01T03:42:13.910Z,86.93
2019-05-01T03:44:42.723Z,88.90
2019-05-01T03:47:10.566Z,87.30
2019-05-01T03:49:38.846Z,86.40
2019-05-01T03:52:06.929Z,90.73
2019-05-01T03:54:34.946Z,92.70
2019-05-01T03:57:03.457Z,87.67
2019-05-01T03:59:31.540Z,88.80
2019-05-01T04:02:32.169Z,89.83
2019-05-01T04:04:47.437Z,92.73
2019-05-01T04:07:15.759Z,90.23
2019-05-01T04:09:43.772Z,88.77
2019-05-01T04:12:11.816Z,91.27
2019-05-01T04:14:40.218Z,89.13
2019-05-01T04:17:15.041Z,94.00
2019-05-01T04:19:43.471Z,91.90
2019-05-01T04:22:12.961Z,96.00
2019-05-01T04:24:41.397Z,97.73
2019-05-01T04:27:13.614Z,97.23
2019-05-01T04:29:52.111Z,93.63
2019-05-01T04:32:52.068Z,91.87
2019-05-01T04:35:27.786Z,91.20
2019-05-01T04:37:57.361Z,95.93
2019-05-01T04:40:26.186Z,94.23
2019-05-01T04:42:54.660Z,98.53
2019-05-01T04:45:23.271Z,95.90
2019-05-01T04:47:51.715Z,101.40
2019-05-01T04:50:20.621Z,101.43
2019-05-01T04:52:48.735Z,100.83
2019-05-01T04:55:16.994Z,94.77
2019-05-01T04:57:45.188Z,102.20
2019-05-01T05:00:13.597Z,97.77
2019-05-01T05:03:03.864Z,101.60
2019-05-01T05:05:20.723Z,94.03
2019-05-01T05:07:49.629Z,106.65
2019-05-01T05:10:17.765Z,97.20
2019-05-01T05:13:03.796Z,86.07
2019-05-01T05:15:39.739Z,92.43
2019-05-01T05:18:07.942Z,96.13
2019-05-01T05:20:36.219Z,93.87
2019-05-01T05:23:04.683Z,91.10
2019-05-01T05:25:33.827Z,87.27
2019-05-01T05:28:02.285Z,97.33
2019-05-01T05:30:30.679Z,90.13
2019-05-01T05:32:59.825Z,90.40
2019-05-01T05:35:29.525Z,95.70
2019-05-01T05:38:09.179Z,96.80
2019-05-01T05:40:37.801Z,93.17
2019-05-01T05:43:06.235Z,98.90
2019-05-01T05:45:36.670Z,91.57
2019-05-01T05:48:05.468Z,89.57
2019-05-01T05:50:38.034Z,94.37
2019-05-01T05:53:08.273Z,90.07
2019-05-01T05:55:41.891Z,94.70
2019-05-01T05:58:24.578Z,95.83
2019-05-01T06:01:17.736Z,93.67
2019-05-01T06:04:06.402Z,93.60
2019-05-01T06:06:47.275Z,94.80
2019-05-01T06:09:20.779Z,97.37
2019-05-01T06:12:04.965Z,94.60
2019-05-01T06:14:55.763Z,95.60
2019-05-01T06:17:52.909Z,94.93
2019-05-01T06:20:39.669Z,90.10
2019-05-01T06:23:26.389Z,98.40
2019-05-01T06:26:00.101Z,93.50
2019-05-01T06:28:27.232Z,95.80
2019-05-01T06:31:17.794Z,91.70
2019-05-01T06:33:48.593Z,91.50
2019-05-01T06:36:16.566Z,92.33
2019-05-01T06:38:45.283Z,90.87
2019-05-01T06:41:14.659Z,92.30
2019-05-01T06:44:02.418Z,88.10
2019-05-01T06:46:52.659Z,84.93
2019-05-01T06:49:40.215Z,91.73
2019-05-01T06:52:09.186Z,84.80
2019-05-01T06:54:37.811Z,85.60
2019-05-01T06:57:06.552Z,82.83
2019-05-01T06:59:35.684Z,84.93
2019-05-01T07:02:04.113Z,89.70
2019-05-01T07:04:37.774Z,80.87
2019-05-01T07:07:06.695Z,82.83
2019-05-01T07:09:34.191Z,78.10
2019-05-01T07:12:04.591Z,75.40
2019-05-01T07:14:32.960Z,81.67
2019-05-01T07:17:01.040Z,79.03
2019-05-01T07:19:48.570Z,78.37
2019-05-01T07:25:07.246Z,77.40
2019-05-01T07:27:35.250Z,75.30
2019-05-01T07:30:19.602Z,74.90
2019-05-01T07:32:47.798Z,72.70
2019-05-01T07:35:15.670Z,75.43
2019-05-01T07:37:43.367Z,86.87
2019-05-01T07:40:12.608Z,127.77
2019-05-01T07:42:43.667Z,76.70
2019-05-01T07:45:43.539Z,72.90
2019-05-01T07:48:10.120Z,73.10
2019-05-01T07:50:38.186Z,74.23
2019-05-01T07:53:06.006Z,72.00
2019-05-01T07:55:37.987Z,68.83
2019-05-01T07:58:10.314Z,72.27
2019-05-01T08:00:59.212Z,72.07
2019-05-01T08:03:28.174Z,73.62
2019-05-01T08:05:55.808Z,70.78
2019-05-01T08:08:23.852Z,68.73
2019-05-01T08:10:51.580Z,65.13
2019-05-01T08:13:19.350Z,66.73
2019-05-01T08:15:47.358Z,69.17
2019-05-01T08:18:24.010Z,68.77
2019-05-01T08:20:58.151Z,65.63
2019-05-01T08:23:26.012Z,69.63
2019-05-01T08:25:53.966Z,67.53
2019-05-01T08:28:27.665Z,73.70
2019-05-01T08:31:27.742Z,69.67
2019-05-01T08:33:57.840Z,76.70
2019-05-01T08:36:25.491Z,70.53
2019-05-01T08:38:53.115Z,65.00
2019-05-01T08:41:20.744Z,68.07
2019-05-01T08:43:53.438Z,71.70
2019-05-01T08:46:37.661Z,72.10
2019-05-01T08:49:28.964Z,75.93
2019-05-01T08:51:56.919Z,76.60
2019-05-01T08:54:24.497Z,73.73
2019-05-01T08:56:57.643Z,70.70
2019-05-01T08:59:23.947Z,74.87
2019-05-01T09:02:08.525Z,71.90
2019-05-01T09:04:25.153Z,72.47
2019-05-01T09:06:51.606Z,68.90
2019-05-01T09:09:19.149Z,77.83
2019-05-01T09:11:47.810Z,78.05
2019-05-01T09:14:15.386Z,79.30
2019-05-01T09:16:43.274Z,76.37
2019-05-01T09:19:10.852Z,80.30
2019-05-01T09:21:39.514Z,81.30
2019-05-01T09:24:07.298Z,85.17
2019-05-01T09:27:03.351Z,82.53
2019-05-01T09:29:46.806Z,80.63
2019-05-01T09:32:13.253Z,89.52
2019-05-01T09:34:41.572Z,84.87
2019-05-01T09:37:09.294Z,81.23
2019-05-01T09:39:37.796Z,81.70
2019-05-01T09:42:06.750Z,83.93
2019-05-01T09:44:34.676Z,85.40
2019-05-01T09:47:14.932Z,83.60
2019-05-01T09:49:43.909Z,85.20
2019-05-01T09:52:31.300Z,89.87
2019-05-01T09:55:12.588Z,83.40
2019-05-01T09:57:41.460Z,75.73
2019-05-01T10:00:15.419Z,73.23
2019-05-01T10:02:43.951Z,61.60
2019-05-01T10:05:11.917Z,63.57
2019-05-01T10:07:39.820Z,73.77
2019-05-01T10:10:07.942Z,65.87
2019-05-01T10:12:35.922Z,69.97
2019-05-01T10:15:04.033Z,64.30
2019-05-01T10:17:31.578Z,58.40
2019-05-01T10:19:59.169Z,58.10
2019-05-01T10:22:27.314Z,57.23
2019-05-01T10:24:54.953Z,55.97
2019-05-01T10:27:25.353Z,57.40
2019-05-01T10:30:21.554Z,57.58
2019-05-01T10:32:52.925Z,53.13
2019-05-01T10:35:41.882Z,47.93
2019-05-01T10:37:59.417Z,47.37
2019-05-01T10:40:32.181Z,49.10
2019-05-01T10:42:56.727Z,42.10
2019-05-01T10:45:24.333Z,40.35
2019-05-01T10:47:51.878Z,47.00
2019-05-01T10:50:21.870Z,47.00
2019-05-01T10:52:49.417Z,45.30
2019-05-01T10:55:16.911Z,47.62
2019-05-01T10:57:44.454Z,50.37
2019-05-01T11:05:55.766Z,45.58
2019-05-01T11:08:17.337Z,50.05
2019-05-01T11:10:45.279Z,47.83
2019-05-01T11:13:13.205Z,48.77
2019-05-01T11:15:40.779Z,47.95
2019-05-01T11:18:09.532Z,45.33
2019-05-01T11:20:37.454Z,50.37
2019-05-01T11:23:05.004Z,49.08
2019-05-01T11:25:33.290Z,52.33
2019-05-01T11:28:00.763Z,50.73
2019-05-01T11:30:28.742Z,55.55
2019-05-01T11:33:30.680Z,56.57
2019-05-01T11:36:19.334Z,55.27
2019-05-01T11:39:09.159Z,48.90
2019-05-01T11:41:49.096Z,50.58
2019-05-01T11:44:16.727Z,50.43
2019-05-01T11:46:44.332Z,52.73
2019-05-01T11:49:12.034Z,53.33
2019-05-01T11:51:40.003Z,53.20
2019-05-01T11:54:07.662Z,49.03
2019-05-01T11:56:35.556Z,54.70
2019-05-01T11:59:03.387Z,47.65
2019-05-01T12:01:31.042Z,280.10
2019-05-01T12:03:58.684Z,63.52
2019-05-01T12:06:26.757Z,49.60
2019-05-01T12:09:07.565Z,53.83
2019-05-01T12:11:40.958Z,45.30
2019-05-01T12:14:13.529Z,44.75
2019-05-01T12:16:59.382Z,42.35
2019-05-01T12:19:30.691Z,43.87
2019-05-01T12:22:00.122Z,46.67
2019-05-01T12:24:28.638Z,42.63
2019-05-01T12:26:56.516Z,42.95
2019-05-01T12:29:24.537Z,41.80
2019-05-01T12:31:53.671Z,37.75
2019-05-01T12:34:23.164Z,43.68
2019-05-01T12:36:52.678Z,39.88
2019-05-01T12:39:20.391Z,41.17
2019-05-01T12:41:55.448Z,42.87
2019-05-01T12:44:23.147Z,43.03
2019-05-01T12:47:19.601Z,45.00
2019-05-01T12:49:51.248Z,44.87
2019-05-01T12:55:24.809Z,47.25
2019-05-01T12:57:53.555Z,43.20
2019-05-01T13:00:25.713Z,52.35
2019-05-01T13:02:53.424Z,45.50
2019-05-01T13:05:21.200Z,48.15
2019-05-01T13:07:48.819Z,50.00
2019-05-01T13:10:16.439Z,45.20
2019-05-01T13:12:44.363Z,44.63
2019-05-01T13:15:12.223Z,44.33
2019-05-01T13:20:37.616Z,47.87
2019-05-01T13:23:05.440Z,51.53
2019-05-01T13:25:33.281Z,52.15
2019-05-01T13:28:19.624Z,46.45
2019-05-01T13:31:22.127Z,51.50
2019-05-01T13:33:49.964Z,48.30
2019-05-01T13:36:17.682Z,44.73
2019-05-01T13:38:45.253Z,44.73
2019-05-01T13:41:13.267Z,46.57
2019-05-01T13:43:41.793Z,52.43
2019-05-01T13:46:09.702Z,85.77
2019-05-01T13:48:37.521Z,52.50
2019-05-01T13:51:05.991Z,49.73
2019-05-01T13:53:33.763Z,54.40
2019-05-01T13:56:02.604Z,50.53
2019-05-01T13:58:30.921Z,53.83
2019-05-01T14:00:59.191Z,51.63
2019-05-01T14:03:27.283Z,50.77
2019-05-01T14:05:55.355Z,49.90
2019-05-01T14:08:24.089Z,51.90
2019-05-01T14:10:52.137Z,49.43
2019-05-01T14:13:21.669Z,49.77
2019-05-01T14:15:50.451Z,46.67
2019-05-01T14:18:18.390Z,48.15
2019-05-01T14:20:58.135Z,45.70
2019-05-01T14:23:32.455Z,48.77
2019-05-01T14:26:03.481Z,46.20
2019-05-01T14:41:47.568Z,42.63
2019-05-01T14:44:15.607Z,39.27
2019-05-01T14:46:43.513Z,42.53
2019-05-01T14:49:11.028Z,39.13
2019-05-01T14:51:38.623Z,42.73
2019-05-01T14:54:06.607Z,42.47
2019-05-01T14:56:34.519Z,46.70
2019-05-01T14:59:03.013Z,48.23
2019-05-01T15:01:31.309Z,43.73
2019-05-01T15:03:59.218Z,43.20
2019-05-01T15:06:27.237Z,41.08
2019-05-01T15:08:54.812Z,43.93
2019-05-01T15:11:22.363Z,43.50
2019-05-01T15:13:56.971Z,40.38
2019-05-01T15:16:37.959Z,42.38
2019-05-01T15:19:25.909Z,38.53
2019-05-01T15:21:53.787Z,43.15
2019-05-01T15:24:21.329Z,43.57
2019-05-01T15:26:49.006Z,38.57
2019-05-01T15:29:16.951Z,41.00
2019-05-01T15:31:44.657Z,47.20
2019-05-01T15:34:12.319Z,39.80
2019-05-01T15:36:39.951Z,48.58
2019-05-01T15:39:12.258Z,39.23
2019-05-01T15:42:11.522Z,40.78
2019-05-01T15:47:44.509Z,40.28
2019-05-01T15:50:13.254Z,43.28
2019-05-01T15:52:40.857Z,43.35
2019-05-01T15:55:08.466Z,44.70
2019-05-01T15:57:37.079Z,46.18
2019-05-01T16:00:08.220Z,44.70
2019-05-01T16:02:36.139Z,49.03
2019-05-01T16:05:04.483Z,46.50
2019-05-01T16:07:32.362Z,47.30
2019-05-01T16:10:00.276Z,48.42
2019-05-01T16:12:42.148Z,51.40
2019-05-01T16:15:16.460Z,50.87
2019-05-01T16:17:44.102Z,50.35
2019-05-01T16:20:12.331Z,51.90
2019-05-01T16:22:40.204Z,47.27
2019-05-01T16:25:08.191Z,47.43
2019-05-01T16:27:35.955Z,48.83
2019-05-01T16:30:04.758Z,49.20
2019-05-01T16:32:32.366Z,50.83
2019-05-01T16:35:00.000Z,52.03
2019-05-01T16:37:27.599Z,55.77
2019-05-01T16:40:17.526Z,53.13
2019-05-01T16:42:45.054Z,53.87
2019-05-01T16:45:19.542Z,55.77
2019-05-01T16:47:47.485Z,56.53
2019-05-01T16:50:15.300Z,54.57
2019-05-01T16:52:43.424Z,54.87
2019-05-01T16:58:36.678Z,54.27
2019-05-01T17:01:09.011Z,49.87
2019-05-01T17:03:44.624Z,60.27
2019-05-01T17:06:30.616Z,53.00
2019-05-01T17:09:13.139Z,58.90
2019-05-01T17:11:41.340Z,52.33
2019-05-01T17:14:09.294Z,57.65
2019-05-01T17:16:37.419Z,52.73
2019-05-01T17:19:07.531Z,55.30
2019-05-01T17:21:35.226Z,50.13
2019-05-01T17:24:02.906Z,51.97
2019-05-01T17:26:30.881Z,54.40
2019-05-01T17:28:58.822Z,50.30
2019-05-01T17:31:27.851Z,49.50
2019-05-01T17:33:56.739Z,54.20
2019-05-01T17:36:24.685Z,47.37
2019-05-01T17:38:52.547Z,50.97
2019-05-01T17:41:22.781Z,46.67
2019-05-01T17:43:50.595Z,52.97
2019-05-01T17:46:18.189Z,48.97
2019-05-01T17:48:48.030Z,50.10
2019-05-01T17:51:15.524Z,51.43
2019-05-01T17:53:43.400Z,56.10
2019-05-01T17:56:15.249Z,58.50
2019-05-01T17:58:40.686Z,54.30
2019-05-01T18:01:37.292Z,52.07
2019-05-01T18:04:23.353Z,51.37
2019-05-01T18:06:51.666Z,50.80
2019-05-01T18:09:19.392Z,53.90
2019-05-01T18:17:34.541Z,54.37
2019-05-01T18:20:02.326Z,56.40
2019-05-01T18:22:54.117Z,58.10
2019-05-01T18:25:33.109Z,59.40
2019-05-01T18:28:29.959Z,52.30
2019-05-01T18:30:56.458Z,61.23
2019-05-01T18:33:27.198Z,64.67
2019-05-01T18:35:55.516Z,61.23
2019-05-01T18:38:47.711Z,55.90
2019-05-01T18:41:46.611Z,63.57
2019-05-01T18:44:14.329Z,64.57
2019-05-01T18:46:42.123Z,69.77
2019-05-01T18:49:10.561Z,68.07
2019-05-01T18:51:40.718Z,78.92
2019-05-01T18:54:08.445Z,80.10
2019-05-01T18:56:38.194Z,75.73
2019-05-01T18:59:06.555Z,82.00
2019-05-01T19:01:34.766Z,78.47
2019-05-01T19:04:02.567Z,78.95
2019-05-01T19:06:41.138Z,69.63
2019-05-01T19:09:14.882Z,71.77
2019-05-01T19:11:35.248Z,80.93
2019-05-01T19:14:03.373Z,71.77
2019-05-01T19:19:40.039Z,76.57
2019-05-01T19:22:08.248Z,79.00
2019-05-01T19:24:37.881Z,85.47
2019-05-01T19:27:25.829Z,79.37
2019-05-01T19:29:57.670Z,97.87
2019-05-01T19:32:24.694Z,94.10
2019-05-01T19:34:52.446Z,96.93
2019-05-01T19:37:22.004Z,93.47
2019-05-01T19:39:53.757Z,92.10
2019-05-01T19:42:21.639Z,95.63
2019-05-01T19:44:51.044Z,93.13
2019-05-01T19:47:20.118Z,95.87
2019-05-01T19:49:48.026Z,96.63
2019-05-01T19:52:16.926Z,104.07
2019-05-01T19:54:44.577Z,106.00
2019-05-01T19:57:12.485Z,106.17
2019-05-01T19:59:40.265Z,116.50
2019-05-01T20:02:09.484Z,108.30
2019-05-01T20:04:38.145Z,121.97
2019-05-01T20:07:10.557Z,117.20
2019-05-01T20:09:36.308Z,132.50
2019-05-01T20:12:04.541Z,130.97
2019-05-01T20:14:33.136Z,145.57
2019-05-01T20:17:04.824Z,146.37
2019-05-01T20:19:33.440Z,154.77
2019-05-01T20:22:01.034Z,164.63
2019-05-01T20:24:28.902Z,179.17
2019-05-01T20:26:59.671Z,186.43
2019-05-01T20:29:31.250Z,192.37
2019-05-01T20:31:58.772Z,201.10
2019-05-01T20:34:26.722Z,216.70
2019-05-01T20:36:54.826Z,237.73
2019-05-01T20:39:24.036Z,236.93
2019-05-01T20:41:52.347Z,245.50
2019-05-01T20:44:24.035Z,252.27
2019-05-01T20:46:49.713Z,241.10
2019-05-01T20:49:17.339Z,255.80
2019-05-01T20:51:44.863Z,253.73
2019-05-01T20:54:12.768Z,273.63
2019-05-01T20:56:49.528Z,278.10
2019-05-01T20:59:17.465Z,294.87
2019-05-01T21:01:45.328Z,308.17
2019-05-01T21:04:32.699Z,324.33
2019-05-01T21:07:29.592Z,311.53
2019-05-01T21:09:59.215Z,323.37
2019-05-01T21:12:26.818Z,330.13
2019-05-01T21:14:54.799Z,321.47
2019-05-01T21:17:22.402Z,359.00
2019-05-01T21:19:50.728Z,375.07
2019-05-01T21:22:18.330Z,392.17
2019-05-01T21:24:45.968Z,365.27
2019-05-01T21:27:14.106Z,362.23
2019-05-01T21:29:41.628Z,381.73
2019-05-01T21:32:09.232Z,399.67
2019-05-01T21:34:37.106Z,341.50
2019-05-01T21:37:04.673Z,346.00
2019-05-01T21:39:33.468Z,361.10
2019-05-01T21:42:06.591Z,351.87
2019-05-01T21:44:30.772Z,345.30
2019-05-01T21:46:58.408Z,347.87
2019-05-01T21:49:28.744Z,371.87
2019-05-01T21:51:56.222Z,412.82
2019-05-01T21:54:24.068Z,408.10
2019-05-01T21:56:51.684Z,416.17
2019-05-01T21:59:19.530Z,449.33
2019-05-01T22:01:47.046Z,432.47
2019-05-01T22:04:14.870Z,423.67
2019-05-01T22:06:46.908Z,385.43
2019-05-01T22:09:16.488Z,416.97
2019-05-01T22:11:45.072Z,404.40
2019-05-01T22:14:20.758Z,465.77
2019-05-01T22:16:53.113Z,439.77
2019-05-01T22:19:19.697Z,436.67
2019-05-01T22:22:05.310Z,421.20
2019-05-01T22:24:58.704Z,424.00
2019-05-01T22:27:34.060Z,423.70
2019-05-01T22:30:20.152Z,452.80
2019-05-01T22:32:50.622Z,476.10
2019-05-01T22:35:26.412Z,438.80
2019-05-01T22:37:54.129Z,418.90
2019-05-01T22:40:41.208Z,477.70
2019-05-01T22:43:08.927Z,481.40
2019-05-01T22:45:36.501Z,471.40
2019-05-01T22:48:04.082Z,479.77
2019-05-01T22:50:31.570Z,523.27
2019-05-01T22:52:59.192Z,493.27
2019-05-01T22:55:27.049Z,531.30
2019-05-01T23:04:17.132Z,553.03
2019-05-01T23:06:44.233Z,571.73
2019-05-01T23:09:13.497Z,540.23
2019-05-01T23:11:43.747Z,585.73
2019-05-01T23:14:11.759Z,565.00
2019-05-01T23:16:46.443Z,557.27
2019-05-01T23:19:14.288Z,568.37
2019-05-01T23:21:45.953Z,517.57
2019-05-01T23:24:11.346Z,581.47
2019-05-01T23:26:38.939Z,518.20
2019-05-01T23:29:06.649Z,564.50
2019-05-01T23:31:34.211Z,541.07
2019-05-01T23:34:02.082Z,584.37
2019-05-01T23:36:30.699Z,600.33
2019-05-01T23:38:58.283Z,576.10
2019-05-01T23:41:44.753Z,642.43
2019-05-01T23:43:58.200Z,562.60
2019-05-01T23:46:25.354Z,663.23
2019-05-01T23:48:52.919Z,662.13
2019-05-01T23:51:23.700Z,655.27
2019-05-01T23:53:50.124Z,672.07
2019-05-01T23:56:17.740Z,598.83
2019-05-01T23:58:45.327Z,562.97
